createdAt,value
2023-01-13T00:01:21.199Z,98150.33
2023-01-13T00:03:49.277Z,98151.72
2023-01-13T00:06:19.389Z,98151.40
2023-01-13T00:08:50.859Z,98151.05
2023-01-13T00:11:19.738Z,98155.23
2023-01-13T00:13:47.611Z,98156.13
2023-01-13T00:16:17.244Z,98157.01
2023-01-13T00:18:45.767Z,98159.90
2023-01-13T00:21:15.197Z,98160.02
2023-01-13T00:23:43.883Z,98160.45
2023-01-13T00:26:13.798Z,98163.00
2023-01-13T00:28:41.774Z,98170.23
2023-01-13T00:31:14.345Z,98175.05
2023-01-13T00:33:42.822Z,98174.88
2023-01-13T00:36:14.326Z,98174.90
2023-01-13T00:38:43.177Z,98173.77
2023-01-13T00:41:12.982Z,98173.38
2023-01-13T00:43:41.463Z,98176.98
2023-01-13T00:46:10.980Z,98172.66
2023-01-13T00:48:39.255Z,98171.88
2023-01-13T00:51:08.765Z,98169.91
2023-01-13T00:53:37.947Z,98168.29
2023-01-13T00:56:06.006Z,98167.55
2023-01-13T00:58:34.702Z,98167.50
2023-01-13T01:01:07.093Z,98165.51
2023-01-13T01:03:35.657Z,98162.69
2023-01-13T01:06:05.579Z,98159.79
2023-01-13T01:08:34.465Z,98159.42
2023-01-13T01:11:06.634Z,98155.40
2023-01-13T01:13:35.329Z,98154.10
2023-01-13T01:16:04.544Z,98156.65
2023-01-13T01:18:34.235Z,98154.73
2023-01-13T01:21:02.254Z,98154.95
2023-01-13T01:23:30.888Z,98156.56
2023-01-13T01:26:06.538Z,98153.36
2023-01-13T01:28:35.026Z,98150.17
2023-01-13T01:31:06.652Z,98144.85
2023-01-13T01:33:34.640Z,98141.91
2023-01-13T01:36:03.641Z,98140.18
2023-01-13T01:38:31.606Z,98140.38
2023-01-13T01:40:59.983Z,98141.35
2023-01-13T01:44:03.124Z,98142.27
2023-01-13T01:46:31.056Z,98138.80
2023-01-13T01:49:02.164Z,98137.94
2023-01-13T01:51:32.628Z,98135.51
2023-01-13T01:54:02.737Z,98132.98
2023-01-13T01:56:31.217Z,98137.77
2023-01-13T01:58:59.103Z,98136.85
2023-01-13T02:01:27.346Z,98137.77
2023-01-13T02:04:01.684Z,98136.17
2023-01-13T02:06:30.260Z,98136.63
2023-01-13T02:08:59.467Z,98135.34
2023-01-13T02:11:49.977Z,98133.55
2023-01-13T02:14:18.752Z,98128.27
2023-01-13T02:16:51.742Z,98126.88
2023-01-13T02:19:19.815Z,98125.77
2023-01-13T02:21:56.991Z,98120.73
2023-01-13T02:24:52.685Z,98118.92
2023-01-13T02:27:39.216Z,98118.92
2023-01-13T02:30:25.676Z,98119.89
2023-01-13T02:33:12.427Z,98121.00
2023-01-13T02:35:49.107Z,98118.73
2023-01-13T02:38:20.559Z,98118.66
2023-01-13T02:41:21.091Z,98115.52
2023-01-13T02:44:09.339Z,98113.64
2023-01-13T02:46:37.162Z,98106.88
2023-01-13T02:49:07.629Z,98108.54
2023-01-13T02:51:37.028Z,98115.30
2023-01-13T02:54:10.943Z,98117.48
2023-01-13T02:56:42.081Z,98123.08
2023-01-13T02:59:10.665Z,98126.13
2023-01-13T03:01:38.686Z,98125.37
2023-01-13T03:04:13.787Z,98127.23
2023-01-13T03:07:02.327Z,98125.69
2023-01-13T03:09:38.287Z,98126.91
2023-01-13T03:12:06.103Z,98130.44
2023-01-13T03:14:41.803Z,98129.42
2023-01-13T03:17:41.799Z,98129.27
2023-01-13T03:20:24.435Z,98134.12
2023-01-13T03:23:06.435Z,98138.05
2023-01-13T03:25:41.254Z,98138.42
2023-01-13T03:28:13.018Z,98143.02
2023-01-13T03:30:46.373Z,98141.38
2023-01-13T03:33:45.516Z,98139.16
2023-01-13T03:36:15.225Z,98140.28
2023-01-13T03:38:45.546Z,98139.66
2023-01-13T03:41:20.018Z,98140.36
2023-01-13T03:44:10.986Z,98136.23
2023-01-13T03:46:43.359Z,98138.13
2023-01-13T03:49:14.086Z,98138.56
2023-01-13T03:51:42.979Z,98129.91
2023-01-13T03:54:12.595Z,98131.45
2023-01-13T03:56:47.850Z,98130.89
2023-01-13T03:59:19.996Z,98130.30
2023-01-13T04:01:57.165Z,98129.92
2023-01-13T04:04:34.022Z,98133.46
2023-01-13T04:07:20.763Z,98134.64
2023-01-13T04:09:51.130Z,98135.29
2023-01-13T04:12:25.315Z,98141.08
2023-01-13T04:14:54.213Z,98138.30
2023-01-13T04:17:22.383Z,98137.80
2023-01-13T04:19:50.240Z,98144.38
2023-01-13T04:22:18.214Z,98148.52
2023-01-13T04:24:46.077Z,98149.54
2023-01-13T04:27:14.152Z,98150.08
2023-01-13T04:29:42.021Z,98149.72
2023-01-13T04:32:09.984Z,98150.17
2023-01-13T04:34:37.765Z,98150.95
2023-01-13T04:37:05.723Z,98157.36
2023-01-13T04:39:33.686Z,98156.46
2023-01-13T04:42:02.787Z,98158.16
2023-01-13T04:44:35.436Z,98159.71
2023-01-13T04:47:03.953Z,98157.33
2023-01-13T04:49:32.023Z,98160.27
2023-01-13T04:51:59.955Z,98162.38
2023-01-13T04:54:27.761Z,98161.52
2023-01-13T04:56:55.727Z,98159.75
2023-01-13T04:59:23.694Z,98163.11
2023-01-13T05:01:51.787Z,98167.95
2023-01-13T05:04:19.950Z,98173.52
2023-01-13T05:06:47.907Z,98171.60
2023-01-13T05:09:15.863Z,98175.15
2023-01-13T05:12:02.590Z,98174.15
2023-01-13T05:14:48.985Z,98177.08
2023-01-13T05:17:20.152Z,98178.77
2023-01-13T05:19:48.113Z,98186.60
2023-01-13T05:22:34.716Z,98188.32
2023-01-13T05:25:31.876Z,98187.73
2023-01-13T05:28:00.239Z,98188.34
2023-01-13T05:30:33.436Z,98191.20
2023-01-13T05:33:01.818Z,98191.89
2023-01-13T05:35:30.090Z,98191.36
2023-01-13T05:37:58.210Z,98196.10
2023-01-13T05:40:44.968Z,98199.61
2023-01-13T05:43:20.442Z,98201.20
2023-01-13T05:45:48.244Z,98194.52
2023-01-13T05:48:17.004Z,98193.52
2023-01-13T05:50:45.556Z,98192.92
2023-01-13T05:53:13.733Z,98191.28
2023-01-13T05:55:42.428Z,98193.77
2023-01-13T05:58:10.998Z,98194.00
2023-01-13T06:00:41.025Z,98192.92
2023-01-13T06:03:10.342Z,98194.00
2023-01-13T06:05:38.485Z,98191.98
2023-01-13T06:08:07.336Z,98196.47
2023-01-13T06:10:35.653Z,98198.14
2023-01-13T06:13:04.142Z,98195.25
2023-01-13T06:15:32.520Z,98197.54
2023-01-13T06:18:02.239Z,98197.14
2023-01-13T06:20:30.308Z,98205.02
2023-01-13T06:22:58.374Z,98205.96
2023-01-13T06:25:30.743Z,98211.00
2023-01-13T06:27:59.632Z,98210.20
2023-01-13T06:30:32.829Z,98212.77
2023-01-13T06:33:03.439Z,98215.84
2023-01-13T06:35:33.172Z,98217.66
2023-01-13T06:38:03.842Z,98222.69
2023-01-13T06:40:31.819Z,98215.48
2023-01-13T06:43:17.846Z,98218.71
2023-01-13T06:45:51.058Z,98219.85
2023-01-13T06:48:20.357Z,98222.91
2023-01-13T06:50:48.331Z,98219.41
2023-01-13T06:53:16.294Z,98216.14
2023-01-13T06:55:44.121Z,98214.61
2023-01-13T06:58:12.157Z,98215.48
2023-01-13T07:00:40.096Z,98215.08
2023-01-13T07:03:09.000Z,98218.36
2023-01-13T07:05:37.268Z,98220.21
2023-01-13T07:08:05.844Z,98221.02
2023-01-13T07:10:34.241Z,98220.64
2023-01-13T07:13:21.881Z,98224.02
2023-01-13T07:15:54.240Z,98224.34
2023-01-13T07:18:22.213Z,98223.66
2023-01-13T07:20:57.245Z,98224.96
2023-01-13T07:23:25.524Z,98223.02
2023-01-13T07:25:54.932Z,98221.56
2023-01-13T07:28:23.096Z,98221.61
2023-01-13T07:30:51.175Z,98226.02
2023-01-13T07:33:19.238Z,98222.52
2023-01-13T07:35:47.552Z,98225.59
2023-01-13T07:38:15.863Z,98229.84
2023-01-13T07:40:43.862Z,98230.79
2023-01-13T07:43:33.179Z,98230.23
2023-01-13T07:46:03.300Z,98232.34
2023-01-13T07:48:35.415Z,98235.80
2023-01-13T07:51:04.544Z,98236.39
2023-01-13T07:53:32.994Z,98235.46
2023-01-13T07:56:01.593Z,98234.41
2023-01-13T07:58:29.861Z,98236.61
2023-01-13T08:00:58.372Z,98234.06
2023-01-13T08:03:27.435Z,98231.49
2023-01-13T08:05:55.416Z,98234.50
2023-01-13T08:08:23.381Z,98235.81
2023-01-13T08:10:51.243Z,98239.70
2023-01-13T08:13:22.588Z,98238.94
2023-01-13T08:15:51.684Z,98237.48
2023-01-13T08:18:22.252Z,98241.23
2023-01-13T08:20:52.484Z,98238.45
2023-01-13T08:23:21.231Z,98236.73
2023-01-13T08:25:49.733Z,98231.25
2023-01-13T08:28:17.679Z,98231.27
2023-01-13T08:30:45.734Z,98236.92
2023-01-13T08:33:13.733Z,98240.55
2023-01-13T08:35:42.435Z,98240.33
2023-01-13T08:38:10.477Z,98239.29
2023-01-13T08:40:39.889Z,98236.34
2023-01-13T08:43:07.849Z,98235.61
2023-01-13T08:45:36.348Z,98232.30
2023-01-13T08:48:04.912Z,98231.20
2023-01-13T08:50:32.990Z,98233.21
2023-01-13T08:53:01.060Z,98234.77
2023-01-13T08:55:28.893Z,98234.90
2023-01-13T08:58:14.014Z,98233.66
2023-01-13T09:00:43.700Z,98234.02
2023-01-13T09:03:11.674Z,98233.83
2023-01-13T09:05:39.550Z,98236.49
2023-01-13T09:08:07.630Z,98234.77
2023-01-13T09:10:35.991Z,98234.19
2023-01-13T09:13:12.988Z,98231.39
2023-01-13T09:15:42.737Z,98229.39
2023-01-13T09:18:10.986Z,98230.71
2023-01-13T09:20:41.594Z,98224.08
2023-01-13T09:23:10.980Z,98223.86
2023-01-13T09:25:39.704Z,98223.42
2023-01-13T09:28:08.794Z,98219.34
2023-01-13T09:30:37.727Z,98216.14
2023-01-13T09:33:24.523Z,98215.40
2023-01-13T09:35:52.451Z,98216.80
2023-01-13T09:38:20.330Z,98215.06
2023-01-13T09:40:49.111Z,98210.56
2023-01-13T09:43:42.568Z,98205.55
2023-01-13T09:46:47.530Z,98200.67
2023-01-13T09:49:24.183Z,98198.80
2023-01-13T09:51:55.000Z,98194.61
2023-01-13T09:54:32.201Z,98196.41
2023-01-13T09:57:00.292Z,98194.24
2023-01-13T09:59:34.804Z,98187.61
2023-01-13T10:02:12.088Z,98189.05
2023-01-13T10:04:40.048Z,98189.83
2023-01-13T10:07:13.862Z,98189.55
2023-01-13T10:09:46.643Z,98190.02
2023-01-13T10:12:35.681Z,98193.96
2023-01-13T10:15:03.637Z,98194.43
2023-01-13T10:17:31.561Z,98198.44
2023-01-13T10:20:18.270Z,98198.16
2023-01-13T10:23:04.459Z,98195.86
2023-01-13T10:25:48.455Z,98192.88
2023-01-13T10:28:19.653Z,98188.80
2023-01-13T10:30:47.920Z,98189.99
2023-01-13T10:33:20.857Z,98191.64
2023-01-13T10:35:53.594Z,98187.77
2023-01-13T10:38:41.740Z,98181.71
2023-01-13T10:41:15.537Z,98175.44
2023-01-13T10:43:57.439Z,98174.30
2023-01-13T10:46:25.312Z,98177.02
2023-01-13T10:48:58.181Z,98178.07
2023-01-13T10:51:27.907Z,98176.14
2023-01-13T10:54:03.345Z,98175.42
2023-01-13T10:56:32.983Z,98174.75
2023-01-13T10:59:09.930Z,98173.40
2023-01-13T11:01:38.127Z,98172.77
2023-01-13T11:04:24.725Z,98167.23
2023-01-13T11:06:52.784Z,98161.95
2023-01-13T11:09:22.587Z,98160.52
2023-01-13T11:11:55.502Z,98160.34
2023-01-13T11:14:39.687Z,98160.04
2023-01-13T11:17:17.028Z,98154.75
2023-01-13T11:19:49.799Z,98158.68
2023-01-13T11:22:21.722Z,98165.34
2023-01-13T11:25:01.623Z,98165.24
2023-01-13T11:27:29.486Z,98162.08
2023-01-13T11:30:09.885Z,98156.11
2023-01-13T11:32:48.663Z,98149.38
2023-01-13T11:35:18.984Z,98148.20
2023-01-13T11:37:52.205Z,98141.91
2023-01-13T11:40:27.637Z,98138.40
2023-01-13T11:43:07.373Z,98136.91
2023-01-13T11:45:53.565Z,98136.04
2023-01-13T11:48:27.028Z,98133.06
2023-01-13T11:51:00.336Z,98132.99
2023-01-13T11:53:43.700Z,98130.84
2023-01-13T11:56:11.669Z,98123.50
2023-01-13T11:58:58.055Z,98124.61
2023-01-13T12:01:28.933Z,98123.79
2023-01-13T12:04:15.466Z,98124.98
2023-01-13T12:06:46.126Z,98119.23
2023-01-13T12:09:21.310Z,98120.48
2023-01-13T12:12:19.617Z,98121.04
2023-01-13T12:14:56.633Z,98121.88
2023-01-13T12:17:39.754Z,98123.59
2023-01-13T12:20:16.640Z,98124.77
2023-01-13T12:22:46.955Z,98124.90
2023-01-13T12:25:20.570Z,98120.36
2023-01-13T12:27:51.804Z,98119.79
2023-01-13T12:30:23.056Z,98118.30
2023-01-13T12:32:53.696Z,98114.93
2023-01-13T12:35:47.764Z,98115.92
2023-01-13T12:38:15.738Z,98118.17
2023-01-13T12:41:00.154Z,98110.71
2023-01-13T12:43:47.214Z,98107.57
2023-01-13T12:46:24.708Z,98113.80
2023-01-13T12:48:57.098Z,98116.55
2023-01-13T12:51:57.002Z,98114.78
2023-01-13T12:54:31.170Z,98110.29
2023-01-13T12:56:59.491Z,98110.45
2023-01-13T12:59:27.357Z,98113.81
2023-01-13T13:02:10.856Z,98111.17
2023-01-13T13:04:43.360Z,98111.08
2023-01-13T13:07:15.633Z,98105.85
2023-01-13T13:09:45.247Z,98108.11
2023-01-13T13:12:50.376Z,98109.88
2023-01-13T13:15:23.273Z,98114.05
2023-01-13T13:18:14.683Z,98114.41
2023-01-13T13:20:56.993Z,98113.48
2023-01-13T13:23:29.280Z,98116.73
2023-01-13T13:26:07.475Z,98114.29
2023-01-13T13:28:41.578Z,98112.64
2023-01-13T13:31:24.074Z,98106.13
2023-01-13T13:34:06.715Z,98100.56
2023-01-13T13:36:49.880Z,98101.76
2023-01-13T13:39:40.241Z,98105.72
2023-01-13T13:42:41.379Z,98110.49
2023-01-13T13:45:35.150Z,98111.60
2023-01-13T13:48:19.120Z,98112.17
2023-01-13T13:50:47.893Z,98111.70
2023-01-13T13:53:16.439Z,98111.53
2023-01-13T13:55:53.516Z,98113.25
2023-01-13T13:58:22.957Z,98112.02
2023-01-13T14:00:51.439Z,98117.05
2023-01-13T14:03:19.728Z,98115.66
2023-01-13T14:05:58.640Z,98118.36
2023-01-13T14:08:31.390Z,98122.97
2023-01-13T14:10:59.278Z,98127.59
2023-01-13T14:13:31.522Z,98132.09
2023-01-13T14:16:04.092Z,98132.00
2023-01-13T14:18:34.532Z,98130.94
2023-01-13T14:21:17.860Z,98134.14
2023-01-13T14:23:54.003Z,98135.02
2023-01-13T14:26:26.379Z,98135.52
2023-01-13T14:28:55.464Z,98137.58
2023-01-13T14:31:23.856Z,98137.94
2023-01-13T14:33:54.264Z,98139.52
2023-01-13T14:36:22.228Z,98141.10
2023-01-13T14:39:14.978Z,98138.48
2023-01-13T14:41:42.851Z,98139.52
2023-01-13T14:44:49.420Z,98141.89
2023-01-13T14:47:17.302Z,98140.98
2023-01-13T14:49:59.285Z,98142.33
2023-01-13T14:52:28.684Z,98141.20
2023-01-13T14:55:05.712Z,98141.29
2023-01-13T14:57:34.677Z,98138.08
2023-01-13T15:00:06.658Z,98134.77
2023-01-13T15:02:39.254Z,98136.25
2023-01-13T15:05:19.686Z,98136.17
2023-01-13T15:07:50.698Z,98139.02
2023-01-13T15:10:19.797Z,98140.83
2023-01-13T15:12:50.233Z,98138.71
2023-01-13T15:15:30.387Z,98136.83
2023-01-13T15:17:59.062Z,98138.88
2023-01-13T15:20:27.975Z,98136.83
2023-01-13T15:22:58.153Z,98142.73
2023-01-13T15:25:31.452Z,98148.95
2023-01-13T15:27:59.318Z,98148.77
2023-01-13T15:30:27.880Z,98147.20
2023-01-13T15:32:56.503Z,98144.90
2023-01-13T15:35:25.687Z,98146.17
2023-01-13T15:37:55.106Z,98151.80
2023-01-13T15:40:24.997Z,98155.69
2023-01-13T15:43:11.322Z,98159.55
2023-01-13T15:45:57.935Z,98163.94
2023-01-13T15:48:27.962Z,98161.39
2023-01-13T15:50:55.920Z,98158.44
2023-01-13T15:53:23.777Z,98157.70
2023-01-13T15:55:55.124Z,98155.77
2023-01-13T15:58:27.080Z,98156.92
2023-01-13T16:00:56.279Z,98154.50
2023-01-13T16:03:24.563Z,98154.33
2023-01-13T16:05:52.649Z,98155.18
2023-01-13T16:08:21.631Z,98156.88
2023-01-13T16:10:50.114Z,98157.40
2023-01-13T16:13:18.619Z,98156.34
2023-01-13T16:15:48.213Z,98153.56
2023-01-13T16:18:18.111Z,98156.29
2023-01-13T16:20:46.815Z,98158.30
2023-01-13T16:23:14.795Z,98159.22
2023-01-13T16:25:45.120Z,98162.98
2023-01-13T16:28:20.445Z,98166.75
2023-01-13T16:30:48.441Z,98167.59
2023-01-13T16:33:16.525Z,98166.73
2023-01-13T16:36:10.748Z,98164.85
2023-01-13T16:38:32.114Z,98158.66
2023-01-13T16:41:00.000Z,98153.11
2023-01-13T16:43:27.923Z,98149.30
2023-01-13T16:45:55.993Z,98148.04
2023-01-13T16:48:24.123Z,98146.10
2023-01-13T16:50:52.098Z,98143.98
2023-01-13T16:53:19.970Z,98145.29
2023-01-13T16:55:47.936Z,98141.53
2023-01-13T16:58:17.646Z,98141.99
2023-01-13T17:00:48.927Z,98139.30
2023-01-13T17:03:17.321Z,98137.64
2023-01-13T17:05:47.620Z,98136.52
2023-01-13T17:08:17.947Z,98137.17
2023-01-13T17:10:46.750Z,98135.25
2023-01-13T17:13:16.995Z,98131.05
2023-01-13T17:15:46.063Z,98133.38
2023-01-13T17:18:14.214Z,98130.95
2023-01-13T17:20:42.182Z,98129.54
2023-01-13T17:23:10.157Z,98131.79
2023-01-13T17:25:38.123Z,98129.42
2023-01-13T17:28:06.090Z,98128.61
2023-01-13T17:30:34.082Z,98128.95
2023-01-13T17:33:01.921Z,98130.81
2023-01-13T17:35:30.415Z,98126.35
2023-01-13T17:37:58.378Z,98131.70
2023-01-13T17:40:26.349Z,98134.11
2023-01-13T17:42:54.237Z,98137.45
2023-01-13T17:45:22.208Z,98138.59
2023-01-13T17:47:50.150Z,98133.21
2023-01-13T17:50:17.990Z,98132.27
2023-01-13T17:52:45.890Z,98134.45
2023-01-13T17:55:13.747Z,98132.59
2023-01-13T17:57:41.558Z,98130.66
2023-01-13T18:00:12.150Z,98124.50
2023-01-13T18:02:43.058Z,98127.46
2023-01-13T18:05:13.381Z,98130.40
2023-01-13T18:07:41.280Z,98132.13
2023-01-13T18:10:09.653Z,98131.11
2023-01-13T18:12:37.624Z,98132.86
2023-01-13T18:15:05.897Z,98131.63
2023-01-13T18:17:33.772Z,98132.66
2023-01-13T18:20:20.402Z,98129.87
2023-01-13T18:23:07.192Z,98128.65
2023-01-13T18:25:53.796Z,98130.66
2023-01-13T18:28:21.662Z,98130.95
2023-01-13T18:30:49.674Z,98130.89
2023-01-13T18:33:17.702Z,98133.57
2023-01-13T18:35:45.669Z,98132.10
2023-01-13T18:38:23.478Z,98128.52
2023-01-13T18:40:51.536Z,98128.95
2023-01-13T18:43:19.504Z,98132.80
2023-01-13T18:45:50.066Z,98132.54
2023-01-13T18:48:18.019Z,98129.52
2023-01-13T18:50:45.985Z,98127.20
2023-01-13T18:53:14.156Z,98126.08
2023-01-13T18:55:43.558Z,98122.40
2023-01-13T18:58:11.725Z,98124.76
2023-01-13T19:00:39.697Z,98124.67
2023-01-13T19:05:38.098Z,98118.53
2023-01-13T19:08:06.486Z,98117.41
2023-01-13T19:10:34.625Z,98117.80
2023-01-13T19:13:02.767Z,98120.41
2023-01-13T19:15:31.093Z,98122.51
2023-01-13T19:17:59.175Z,98125.46
2023-01-13T19:20:27.207Z,98123.97
2023-01-13T19:22:55.449Z,98123.16
2023-01-13T19:25:23.392Z,98123.38
2023-01-13T19:27:51.313Z,98126.02
2023-01-13T19:30:19.407Z,98127.77
2023-01-13T19:32:47.214Z,98133.80
2023-01-13T19:35:17.943Z,98132.86
2023-01-13T19:37:45.945Z,98130.98
2023-01-13T19:40:13.935Z,98128.61
2023-01-13T19:43:03.553Z,98127.97
2023-01-13T19:45:33.957Z,98134.88
2023-01-13T19:48:02.657Z,98134.73
2023-01-13T19:50:30.638Z,98135.15
2023-01-13T19:52:58.660Z,98129.86
2023-01-13T19:55:26.794Z,98131.92
2023-01-13T19:57:54.843Z,98128.00
2023-01-13T20:00:23.894Z,98127.67
2023-01-13T20:02:52.058Z,98128.52
2023-01-13T20:05:22.620Z,98130.53
2023-01-13T20:07:51.638Z,98132.89
2023-01-13T20:10:20.659Z,98129.94
2023-01-13T20:12:48.601Z,98127.21
2023-01-13T20:15:16.510Z,98126.14
2023-01-13T20:17:45.053Z,98124.77
2023-01-13T20:20:13.737Z,98125.83
2023-01-13T20:22:41.859Z,98126.00
2023-01-13T20:25:10.608Z,98125.83
2023-01-13T20:27:38.529Z,98123.63
2023-01-13T20:30:09.764Z,98127.14
2023-01-13T20:32:37.886Z,98128.52
2023-01-13T20:35:07.510Z,98124.20
2023-01-13T20:37:37.617Z,98122.98
2023-01-13T20:40:06.202Z,98122.26
2023-01-13T20:42:44.665Z,98120.16
2023-01-13T20:45:17.411Z,98119.96
2023-01-13T20:47:46.012Z,98120.85
2023-01-13T20:50:14.552Z,98113.44
2023-01-13T20:52:42.634Z,98113.14
2023-01-13T20:55:10.799Z,98115.05
2023-01-13T20:57:38.795Z,98120.59
2023-01-13T21:00:07.204Z,98121.44
2023-01-13T21:02:35.128Z,98125.48
2023-01-13T21:05:03.305Z,98126.23
2023-01-13T21:07:31.186Z,98125.78
2023-01-13T21:09:59.035Z,98133.07
2023-01-13T21:12:45.350Z,98132.23
2023-01-13T21:15:20.880Z,98131.50
2023-01-13T21:18:08.639Z,98129.92
2023-01-13T21:20:37.213Z,98127.88
2023-01-13T21:23:05.173Z,98125.15
2023-01-13T21:25:35.390Z,98125.69
2023-01-13T21:28:07.850Z,98125.29
2023-01-13T21:30:37.672Z,98130.04
2023-01-13T21:33:06.481Z,98129.67
2023-01-13T21:35:37.422Z,98132.35
2023-01-13T21:38:05.477Z,98133.81
2023-01-13T21:40:33.342Z,98133.91
2023-01-13T21:43:19.852Z,98139.17
2023-01-13T21:46:06.702Z,98140.99
2023-01-13T21:48:34.634Z,98141.04
2023-01-13T21:51:02.604Z,98140.70
2023-01-13T21:53:30.572Z,98139.69
2023-01-13T21:55:58.435Z,98136.77
2023-01-13T21:58:26.404Z,98138.04
2023-01-13T22:00:54.453Z,98140.16
2023-01-13T22:03:22.468Z,98141.61
2023-01-13T22:05:54.696Z,98143.38
2023-01-13T22:08:22.803Z,98144.60
2023-01-13T22:11:00.561Z,98147.74
2023-01-13T22:13:48.052Z,98148.16
2023-01-13T22:16:16.342Z,98145.65
2023-01-13T22:18:44.439Z,98148.30
2023-01-13T22:21:12.454Z,98146.30
2023-01-13T22:23:40.411Z,98143.75
2023-01-13T22:26:08.482Z,98143.28
2023-01-13T22:28:44.331Z,98142.95
2023-01-13T22:31:13.340Z,98139.39
2023-01-13T22:33:41.677Z,98138.41
2023-01-13T22:36:10.298Z,98134.84
2023-01-13T22:38:38.274Z,98132.48
2023-01-13T22:41:07.596Z,98131.86
2023-01-13T22:43:36.137Z,98128.27
2023-01-13T22:46:07.074Z,98127.77
2023-01-13T22:48:35.461Z,98128.44
2023-01-13T22:51:14.286Z,98129.98
2023-01-13T22:53:42.842Z,98128.64
2023-01-13T22:56:16.059Z,98126.09
2023-01-13T22:58:44.333Z,98127.30
2023-01-13T23:01:13.805Z,98128.66
2023-01-13T23:03:42.562Z,98130.57
2023-01-13T23:06:10.503Z,98132.48
2023-01-13T23:08:38.575Z,98130.78
2023-01-13T23:11:07.862Z,98131.81
2023-01-13T23:13:37.985Z,98134.73
2023-01-13T23:16:07.500Z,98132.35
2023-01-13T23:18:35.471Z,98137.45
2023-01-13T23:21:04.358Z,98137.63
2023-01-13T23:23:33.143Z,98136.58
2023-01-13T23:26:01.143Z,98133.31
2023-01-13T23:28:29.594Z,98131.39
2023-01-13T23:30:57.545Z,98130.88
2023-01-13T23:33:26.057Z,98129.63
2023-01-13T23:35:57.190Z,98135.27
2023-01-13T23:38:25.163Z,98133.71
2023-01-13T23:40:53.234Z,98132.98
2023-01-13T23:43:22.032Z,98129.86
2023-01-13T23:45:50.023Z,98128.98
2023-01-13T23:48:18.881Z,98132.03
2023-01-13T23:50:56.376Z,98131.33
2023-01-13T23:53:24.553Z,98129.62
2023-01-13T23:55:56.619Z,98130.65
2023-01-13T23:58:24.584Z,98127.67
